Time;durP1;ratioP1;P1;durP2;ratioP2;P2;SDS_P1;SDS_P2;PMS_P1;PMS_P2;Temp;Humidity;BMP_temperature;BMP_pressure;BME280_temperature;BME280_humidity;BME280_pressure;Samples;Min_cycle;Max_cycle;Signal;HPM_P1;HPM_P2
2022/10/11 00:01:30;;;;;;;32.10;3.85;;;9.90;99.90;;;8.57;100.00;101373.50;5008802;28;20021;-82
2022/10/11 00:03:56;;;;;;;26.90;3.20;;;9.80;99.90;;;8.53;100.00;101382.34;5025779;28;20032;-82
2022/10/11 00:06:21;;;;;;;30.75;3.53;;;9.70;99.90;;;8.49;100.00;101381.59;5026301;28;20034;-83
2022/10/11 00:08:56;;;;;;;27.15;3.20;;;9.70;99.90;;;8.45;100.00;101376.50;5011408;28;20091;-82
2022/10/11 00:11:22;;;;;;;29.25;3.65;;;9.70;99.90;;;8.40;100.00;101384.41;5029439;28;20068;-83
2022/10/11 00:13:48;;;;;;;25.98;2.92;;;9.70;99.90;;;8.36;100.00;101385.44;5012935;28;20092;-82
2022/10/11 00:16:14;;;;;;;24.13;2.40;;;9.60;99.90;;;8.31;100.00;101380.28;5031249;28;20379;-83
2022/10/11 00:18:49;;;;;;;29.25;3.45;;;9.60;99.90;;;8.29;100.00;101387.34;5007890;28;20113;-82
2022/10/11 00:21:16;;;;;;;28.75;3.10;;;9.60;99.90;;;8.27;100.00;101389.16;5032295;28;20148;-82
2022/10/11 00:23:42;;;;;;;29.10;2.90;;;9.50;99.90;;;8.23;100.00;101398.00;5005401;28;20034;-84
2022/10/11 00:26:15;;;;;;;33.15;3.72;;;9.50;99.90;;;8.23;100.00;101408.50;5015904;28;20041;-82
2022/10/11 00:28:41;;;;;;;24.45;2.60;;;9.50;99.90;;;8.21;100.00;101407.69;5025623;28;20058;-82
2022/10/11 00:31:19;;;;;;;32.47;3.67;;;9.50;99.90;;;8.20;100.00;101416.44;5028692;28;20057;-82
2022/10/11 00:33:45;;;;;;;32.13;4.07;;;9.50;99.90;;;8.18;100.00;101415.63;5027215;28;20030;-82
2022/10/11 00:36:15;;;;;;;24.08;2.70;;;9.40;99.90;;;8.16;100.00;101414.78;5013512;28;20036;-82
2022/10/11 00:38:49;;;;;;;29.25;3.67;;;9.40;99.90;;;8.15;100.00;101419.19;5027665;28;20021;-82
2022/10/11 00:41:15;;;;;;;28.95;3.53;;;9.40;99.90;;;8.13;100.00;101422.75;5017241;28;20026;-82
2022/10/11 00:43:42;;;;;;;31.38;3.40;;;9.40;99.90;;;8.12;100.00;101419.28;5029319;28;20025;-82
2022/10/11 00:46:16;;;;;;;23.23;2.92;;;9.40;99.90;;;8.11;100.00;101422.78;5029591;28;20062;-82
2022/10/11 00:48:59;;;;;;;22.73;2.85;;;9.40;99.90;;;8.10;100.00;101428.94;5024723;28;20033;-83
2022/10/11 00:51:55;;;;;;;26.67;3.45;;;9.30;99.90;;;8.06;100.00;101429.06;5022506;28;20030;-83
2022/10/11 00:54:34;;;;;;;33.70;3.47;;;9.30;99.90;;;8.04;100.00;101426.47;5008122;28;20117;-82
2022/10/11 00:57:14;;;;;;;34.45;3.70;;;9.30;99.90;;;8.02;100.00;101436.13;5033822;28;20697;-82
2022/10/11 00:59:52;;;;;;;24.58;2.63;;;9.30;99.90;;;7.99;100.00;101437.09;5028168;28;20025;-82
2022/10/11 01:02:21;;;;;;;24.60;3.70;;;9.20;99.90;;;7.95;100.00;101437.19;5017342;28;20033;-82
2022/10/11 01:04:55;;;;;;;30.67;3.05;;;9.20;99.90;;;7.92;100.00;101438.09;5019394;28;20462;-82
2022/10/11 01:07:21;;;;;;;35.58;4.18;;;9.20;99.90;;;7.90;100.00;101442.53;5013793;28;20028;-82
2022/10/11 01:09:48;;;;;;;46.17;3.42;;;9.20;99.90;;;7.88;100.00;101446.94;5018037;28;20427;-82
2022/10/11 01:12:23;;;;;;;33.92;3.65;;;9.20;99.90;;;7.86;100.00;101443.53;5025956;28;20412;-83
2022/10/11 01:15:17;;;;;;;27.97;3.17;;;9.10;99.90;;;7.82;100.00;101447.13;5027399;28;20029;-83
2022/10/11 01:17:46;;;;;;;30.25;3.05;;;9.10;99.90;;;7.77;100.00;101452.44;5023417;28;20026;-84
2022/10/11 01:20:35;;;;;;;23.48;3.13;;;9.10;99.90;;;7.76;100.00;101458.59;5024557;28;20029;-82
2022/10/11 01:23:20;;;;;;;31.42;3.17;;;9.10;99.90;;;7.75;100.00;101461.25;5029022;28;20037;-83
2022/10/11 01:25:49;;;;;;;30.88;3.47;;;9.00;99.90;;;7.74;100.00;101464.78;5035242;28;20033;-82
2022/10/11 01:28:54;;;;;;;32.28;2.78;;;9.00;99.90;;;7.75;100.00;101466.50;5034294;28;20037;-81
2022/10/11 01:31:33;;;;;;;31.02;4.25;;;9.00;99.90;;;7.72;100.00;101470.03;5017407;28;20033;-82
2022/10/11 01:34:21;;;;;;;36.15;3.20;;;9.00;99.90;;;7.71;100.00;101473.59;5009521;28;20040;-82
2022/10/11 01:37:11;;;;;;;32.35;3.38;;;9.00;99.90;;;7.74;100.00;101478.75;5019779;28;20110;-82
2022/10/11 01:39:58;;;;;;;24.88;3.55;;;9.10;99.90;;;7.81;100.00;101476.84;5014061;28;20072;-82
2022/10/11 01:42:37;;;;;;;28.40;2.97;;;9.10;99.90;;;7.86;100.00;101480.22;5006042;28;20030;-84
2022/10/11 01:45:10;;;;;;;41.60;4.40;;;9.10;99.90;;;7.88;100.00;101486.28;5031043;28;20183;-84
2022/10/11 01:47:37;;;;;;;30.92;3.45;;;9.20;99.90;;;7.88;100.00;101486.28;5013568;28;20030;-82
2022/10/11 01:50:06;;;;;;;30.65;3.45;;;9.10;99.90;;;7.87;100.00;101488.97;5028218;28;20057;-83
2022/10/11 01:52:43;;;;;;;31.27;3.65;;;9.10;99.90;;;7.83;100.00;101487.31;5008396;28;20030;-84
2022/10/11 01:55:23;;;;;;;29.20;3.45;;;9.10;99.90;;;7.80;100.00;101490.84;5032495;28;20033;-82
2022/10/11 01:58:33;;;;;;;32.08;3.78;;;9.10;99.90;;;7.76;100.00;101489.19;5035730;28;20425;-82
2022/10/11 02:01:19;;;;;;;35.85;3.95;;;9.00;99.90;;;7.70;100.00;101489.34;5029125;28;20030;-82
2022/10/11 02:04:22;;;;;;;25.67;3.10;;;8.90;99.90;;;7.64;100.00;101499.94;5037189;28;20041;-83
2022/10/11 02:07:04;;;;;;;31.52;4.18;;;8.90;99.90;;;7.57;100.00;101497.47;5039728;28;20029;-84
2022/10/11 02:09:38;;;;;;;40.92;4.68;;;8.90;99.90;;;7.54;100.00;101505.41;5048980;28;20095;-83
2022/10/11 02:12:12;;;;;;;32.30;3.47;;;8.80;99.90;;;7.53;100.00;101508.91;5027786;28;20024;-85
2022/10/11 02:14:46;;;;;;;32.55;3.67;;;8.80;99.90;;;7.58;100.00;101511.41;5030566;28;20043;-83
2022/10/11 02:17:19;;;;;;;35.03;4.25;;;8.90;99.90;;;7.66;100.00;101516.50;5026731;28;20430;-82
2022/10/11 02:19:51;;;;;;;33.72;4.50;;;9.00;99.90;;;7.74;100.00;101523.31;5015019;28;20436;-83
2022/10/11 02:22:31;;;;;;;35.05;3.78;;;9.00;99.90;;;7.80;100.00;101527.56;5022985;28;20026;-83
2022/10/11 02:25:00;;;;;;;40.50;4.03;;;9.10;99.90;;;7.84;100.00;101534.47;5025071;28;20041;-83
2022/10/11 02:27:32;;;;;;;38.70;4.03;;;9.10;99.90;;;7.85;100.00;101532.69;5005717;28;20041;-83
2022/10/11 02:30:02;;;;;;;34.50;4.10;;;9.10;99.90;;;7.89;100.00;101537.00;5003470;28;20052;-85
2022/10/11 02:32:31;;;;;;;32.58;4.18;;;9.10;99.90;;;7.93;100.00;101528.16;5030294;28;20100;-82
2022/10/11 02:35:02;;;;;;;36.08;3.53;;;9.20;99.90;;;7.98;100.00;101542.88;5013351;28;20026;-83
2022/10/11 02:38:04;;;;;;;37.15;3.42;;;9.20;99.90;;;7.97;100.00;101549.03;5009752;28;20059;-82
2022/10/11 02:40:39;;;;;;;33.72;4.35;;;9.20;99.90;;;7.94;100.00;101546.44;5029960;28;20056;-83
2022/10/11 02:43:32;;;;;;;31.92;3.78;;;9.20;99.90;;;7.97;100.00;101556.03;5023936;28;20034;-84
2022/10/11 02:46:03;;;;;;;38.17;4.25;;;9.20;99.90;;;7.94;100.00;101554.31;5015650;28;20034;-83
2022/10/11 02:48:30;;;;;;;41.28;3.60;;;9.20;99.90;;;7.90;100.00;101554.44;5022924;28;20025;-82
2022/10/11 02:51:02;;;;;;;31.67;3.40;;;9.20;99.90;;;7.87;100.00;101557.13;5027525;28;20037;-82
2022/10/11 02:53:28;;;;;;;30.13;4.40;;;9.10;99.90;;;7.83;100.00;101548.47;5026650;28;20500;-83
2022/10/11 02:55:54;;;;;;;36.40;3.95;;;9.10;99.90;;;7.78;100.00;101556.44;5016899;28;20033;-83
2022/10/11 02:58:22;;;;;;;29.55;3.60;;;9.10;99.90;;;7.78;100.00;101556.44;5025753;28;20021;-82
2022/10/11 03:00:56;;;;;;;30.02;3.58;;;9.10;99.90;;;7.80;100.00;101564.28;5027501;28;20033;-84
2022/10/11 03:03:21;;;;;;;25.20;3.20;;;9.10;99.90;;;7.83;100.00;101564.19;5013555;28;20056;-83
2022/10/11 03:05:48;;;;;;;32.15;3.75;;;9.10;99.90;;;7.87;100.00;101558.00;5030223;28;20044;-81
2022/10/11 03:08:23;;;;;;;31.75;2.90;;;9.10;99.90;;;7.92;100.00;101565.75;5033667;28;20029;-82
2022/10/11 03:10:49;;;;;;;37.08;4.15;;;9.10;99.90;;;7.94;100.00;101562.19;5006981;28;20022;-82
2022/10/11 03:13:15;;;;;;;35.10;3.22;;;9.20;99.90;;;7.95;100.00;101568.31;5026494;28;20033;-84
2022/10/11 03:15:40;;;;;;;31.13;3.80;;;9.20;99.90;;;7.90;100.00;101575.41;5010374;28;20711;-82
2022/10/11 03:18:06;;;;;;;24.35;2.97;;;9.10;99.90;;;7.85;100.00;101579.91;5023793;28;20033;-82
2022/10/11 03:20:39;;;;;;;35.33;3.47;;;9.10;99.90;;;7.78;100.00;101582.66;5026548;28;20033;-82
2022/10/11 03:23:05;;;;;;;33.60;4.40;;;9.00;99.90;;;7.74;100.00;101588.84;5005313;28;20022;-82
2022/10/11 03:25:31;;;;;;;40.20;3.90;;;9.00;99.90;;;7.68;100.00;101593.34;5018615;28;20036;-84
2022/10/11 03:27:56;;;;;;;42.47;3.42;;;8.90;99.90;;;7.62;100.00;101596.97;5009892;28;20461;-82
2022/10/11 03:30:22;;;;;;;38.10;3.85;;;8.90;99.90;;;7.58;100.00;101596.19;5031226;28;20033;-83
2022/10/11 03:32:53;;;;;;;31.55;2.95;;;8.90;99.90;;;7.54;100.00;101598.91;5028533;28;20029;-81
2022/10/11 03:35:19;;;;;;;37.42;4.53;;;8.80;99.90;;;7.49;100.00;101598.09;5017133;28;20026;-86
2022/10/11 03:37:44;;;;;;;32.30;3.30;;;8.80;99.90;;;7.45;100.00;101601.69;5028121;28;20036;-83
2022/10/11 03:40:12;;;;;;;37.08;3.42;;;8.70;99.90;;;7.41;100.00;101611.38;5022456;28;20121;-82
2022/10/11 03:42:38;;;;;;;28.38;3.38;;;8.70;99.90;;;7.39;100.00;101606.16;5007569;28;20030;-82
2022/10/11 03:45:08;;;;;;;39.38;4.18;;;8.70;99.90;;;7.40;100.00;101609.63;5007954;28;20506;-82
2022/10/11 03:47:36;;;;;;;35.20;4.25;;;8.70;99.90;;;7.43;100.00;101617.44;5014204;28;20116;-82
2022/10/11 03:50:03;;;;;;;31.17;3.33;;;8.70;99.90;;;7.46;100.00;101622.63;5025267;28;20526;-82
2022/10/11 03:52:29;;;;;;;28.05;2.97;;;8.80;99.90;;;7.48;100.00;101618.22;5014731;28;20109;-84
2022/10/11 03:54:54;;;;;;;36.05;4.00;;;8.70;99.90;;;7.50;100.00;101626.91;5033275;28;20034;-82
2022/10/11 03:57:29;;;;;;;44.30;3.63;;;8.80;99.90;;;7.52;100.00;101625.13;5011971;28;20025;-82
2022/10/11 03:59:55;;;;;;;46.97;4.93;;;8.80;99.90;;;7.51;100.00;101635.63;5031264;28;20025;-82
2022/10/11 04:02:21;;;;;;;29.83;3.33;;;8.80;99.90;;;7.49;100.00;101633.03;5005008;28;20034;-81
2022/10/11 04:04:46;;;;;;;35.65;3.92;;;8.80;99.90;;;7.44;100.00;101634.88;5029909;28;20084;-82
2022/10/11 04:07:21;;;;;;;30.95;3.67;;;8.70;99.90;;;7.42;100.00;101639.28;5029398;28;20029;-84
2022/10/11 04:09:47;;;;;;;43.38;4.25;;;8.60;99.90;;;7.36;100.00;101637.66;5013416;28;20120;-81
2022/10/11 04:12:13;;;;;;;23.27;3.50;;;8.60;99.90;;;7.30;100.00;101648.25;5010417;28;20032;-83
2022/10/11 04:14:39;;;;;;;30.73;3.83;;;8.60;99.90;;;7.27;100.00;101647.44;5007877;28;20030;-81
2022/10/11 04:17:12;;;;;;;37.22;4.07;;;8.60;99.90;;;7.30;100.00;101660.47;5024481;28;20037;-83
2022/10/11 04:19:38;;;;;;;26.63;3.80;;;8.60;99.90;;;7.33;100.00;101657.81;5023940;28;20059;-82
2022/10/11 04:22:05;;;;;;;28.08;3.25;;;8.60;99.90;;;7.42;100.00;101670.72;5003138;28;20036;-83
2022/10/11 04:24:31;;;;;;;40.22;4.78;;;8.70;99.90;;;7.48;100.00;101665.38;5005351;28;20053;-82
2022/10/11 04:27:02;;;;;;;42.13;3.90;;;8.80;99.90;;;7.56;100.00;101673.13;5007525;28;20036;-83
2022/10/11 04:29:28;;;;;;;38.38;3.72;;;8.80;99.90;;;7.64;100.00;101678.19;5009372;28;20030;-83
2022/10/11 04:31:53;;;;;;;31.45;4.25;;;8.90;99.90;;;7.70;100.00;101676.31;5024268;28;20453;-81
2022/10/11 04:34:19;;;;;;;38.45;3.75;;;8.90;99.90;;;7.74;100.00;101677.13;5005393;28;20120;-82
2022/10/11 04:36:45;;;;;;;27.75;3.30;;;9.00;99.90;;;7.78;100.00;101681.44;5025039;28;20025;-81
2022/10/11 04:39:11;;;;;;;35.88;4.03;;;9.00;99.90;;;7.77;100.00;101680.53;5019104;28;20026;-84
2022/10/11 04:41:45;;;;;;;27.38;3.92;;;9.00;99.90;;;7.73;100.00;101678.91;5026395;28;20355;-83
2022/10/11 04:44:13;;;;;;;35.13;4.05;;;9.00;99.90;;;7.70;100.00;101688.56;5016918;28;20045;-83
2022/10/11 04:46:39;;;;;;;40.55;4.85;;;9.00;99.90;;;7.69;100.00;101689.44;5031098;28;20059;-82
2022/10/11 04:49:10;;;;;;;27.98;4.05;;;8.90;99.90;;;7.65;100.00;101688.66;5011479;28;20112;-82
2022/10/11 04:51:35;;;;;;;34.20;3.53;;;8.90;99.90;;;7.59;100.00;101694.00;5042174;28;20104;-85
2022/10/11 04:54:01;;;;;;;29.70;4.00;;;8.80;99.90;;;7.52;100.00;101695.88;5013850;28;20048;-83
2022/10/11 04:56:29;;;;;;;27.58;3.03;;;8.80;99.90;;;7.45;100.00;101691.66;5025592;28;20383;-83
2022/10/11 04:58:55;;;;;;;28.77;3.83;;;8.70;99.90;;;7.38;100.00;101706.59;5012490;28;20040;-83
2022/10/11 05:01:26;;;;;;;27.33;3.22;;;8.70;99.90;;;7.33;100.00;101710.22;5028281;28;20112;-84
2022/10/11 05:03:52;;;;;;;43.08;4.15;;;8.60;99.90;;;7.25;100.00;101706.84;5018748;28;20489;-82
2022/10/11 05:06:18;;;;;;;33.35;3.75;;;8.60;99.90;;;7.22;100.00;101714.78;5018833;28;20060;-83
2022/10/11 05:08:44;;;;;;;34.20;3.80;;;8.50;99.90;;;7.17;100.00;101720.06;5032819;28;20033;-83
2022/10/11 05:11:17;;;;;;;39.10;3.70;;;8.50;99.90;;;7.15;100.00;101740.22;5013900;28;20105;-83
2022/10/11 05:13:45;;;;;;;38.15;4.47;;;8.50;99.90;;;7.09;100.00;101733.31;5016233;28;20037;-84
2022/10/11 05:16:11;;;;;;;36.00;3.45;;;8.40;99.90;;;7.07;100.00;101739.47;5011770;28;20486;-84
2022/10/11 05:18:37;;;;;;;30.80;3.70;;;8.30;99.90;;;7.01;100.00;101739.56;5033756;28;20048;-83
2022/10/11 05:21:09;;;;;;;40.22;3.92;;;8.30;99.90;;;6.97;100.00;101733.50;5030832;28;20026;-83
2022/10/11 05:23:36;;;;;;;31.50;3.65;;;8.20;99.90;;;6.90;100.00;101740.56;5043339;28;20029;-83
2022/10/11 05:26:02;;;;;;;23.65;3.53;;;8.20;99.90;;;6.87;100.00;101743.25;5028149;28;20033;-82
2022/10/11 05:28:28;;;;;;;42.72;4.38;;;8.20;99.90;;;6.86;100.00;101744.13;5027611;28;20030;-82
2022/10/11 05:30:54;;;;;;;27.42;3.08;;;8.20;99.90;;;6.93;100.00;101753.63;5007556;28;20036;-84
2022/10/11 05:33:25;;;;;;;29.33;3.75;;;8.20;99.90;;;7.04;100.00;101758.72;5018266;28;20117;-83
2022/10/11 05:35:51;;;;;;;28.98;4.88;;;8.30;99.90;;;7.18;100.00;101764.56;5019210;28;20453;-83
2022/10/11 05:38:18;;;;;;;37.72;4.20;;;8.40;99.90;;;7.32;100.00;101777.47;5030023;28;20084;-84
2022/10/11 05:40:44;;;;;;;25.67;3.65;;;8.40;99.90;;;7.49;100.00;101776.31;5015104;28;20433;-81
2022/10/11 05:43:10;;;;;;;28.80;3.90;;;8.70;99.90;;;7.63;100.00;101783.94;5029753;28;20030;-81
2022/10/11 05:45:42;;;;;;;28.92;4.43;;;8.80;99.90;;;7.72;100.00;101776.78;5007284;28;20033;-81
2022/10/11 05:48:09;;;;;;;27.65;3.22;;;8.90;99.90;;;7.81;100.00;101788.84;5007004;28;20048;-81
2022/10/11 05:50:37;;;;;;;36.88;4.90;;;9.00;99.90;;;7.86;100.00;101787.03;5031301;28;20390;-82
2022/10/11 05:53:11;;;;;;;29.17;3.92;;;9.00;99.90;;;7.91;100.00;101792.19;5009697;28;20025;-82
2022/10/11 05:55:40;;;;;;;30.67;4.68;;;9.10;99.90;;;7.93;100.00;101790.41;5030668;28;20041;-83
2022/10/11 05:58:13;;;;;;;38.67;3.88;;;9.10;99.90;;;7.97;100.00;101800.81;5015003;28;20034;-81
2022/10/11 06:00:40;;;;;;;33.38;3.92;;;9.20;99.90;;;8.01;100.00;101797.22;5012724;28;20374;-82
2022/10/11 06:03:07;;;;;;;29.35;4.35;;;9.20;99.90;;;8.06;100.00;101791.03;5015484;28;20524;-82
2022/10/11 06:05:34;;;;;;;40.13;4.78;;;9.30;99.90;;;8.09;100.00;101807.56;5025602;28;20041;-82
2022/10/11 06:08:07;;;;;;;30.35;4.30;;;9.30;99.90;;;8.13;100.00;101811.00;5040942;28;20029;-81
2022/10/11 06:10:35;;;;;;;33.88;4.25;;;9.30;99.90;;;8.26;100.00;101811.63;5014739;28;20540;-82
2022/10/11 06:13:02;;;;;;;30.00;3.80;;;9.40;99.90;;;8.47;100.00;101826.97;5010627;28;20027;-82
2022/10/11 06:15:37;;;;;;;30.85;4.05;;;9.50;99.90;;;8.75;100.00;101827.28;5031727;28;20056;-81
2022/10/11 06:18:03;;;;;;;29.90;3.38;;;9.60;99.90;;;8.98;100.00;101829.38;5024795;28;20026;-83
2022/10/11 06:20:29;;;;;;;45.60;4.55;;;9.80;99.90;;;9.17;100.00;101832.47;5006130;28;20053;-84
2022/10/11 06:23:05;;;;;;;37.47;4.45;;;9.90;99.90;;;9.35;100.00;101830.28;5016984;23;20125;-85
2022/10/11 06:25:31;;;;;;;;;;;9.90;99.90;;;9.97;100.00;101841.00;5009235;28;20096;-85
2022/10/11 06:27:57;;;;;;;39.33;4.27;;;10.00;99.90;;;9.16;100.00;101819.38;5027761;28;20528;-85
2022/10/11 06:30:28;;;;;;;24.48;3.90;;;10.00;99.90;;;8.91;100.00;101832.19;5009411;28;20037;-86
2022/10/11 06:32:54;;;;;;;28.60;3.50;;;;;;;8.93;100.00;101839.13;5013705;28;20037;-85
2022/10/11 06:35:35;;;;;;;29.42;3.78;;;9.80;99.90;;;9.14;100.00;101848.31;5027739;28;20033;-86
2022/10/11 06:38:07;;;;;;;37.08;4.00;;;;;;;11.98;100.00;101875.47;5012998;28;20067;-86
2022/10/11 06:40:39;;;;;;;29.90;3.58;;;11.30;99.90;;;15.02;81.56;101878.25;5030611;28;20390;-86
2022/10/11 06:43:08;;;;;;;37.80;4.10;;;;;;;16.70;71.27;101879.53;5002194;28;20031;-86
2022/10/11 06:46:20;;;;;;;33.30;3.97;;;;;;;18.04;65.74;101875.50;5025334;28;20034;-86
2022/10/11 06:48:57;;;;;;;25.77;3.42;;;14.60;99.90;;;19.65;60.41;101884.97;4994884;28;20056;-87
2022/10/11 06:51:50;;;;;;;21.52;3.13;;;;;;;20.63;57.09;101889.00;4986801;28;20546;-86
2022/10/11 06:54:16;;;;;;;24.67;3.90;;;16.70;99.90;;;21.28;55.32;101892.41;5000393;28;20045;-86
2022/10/11 06:56:43;;;;;;;18.55;3.15;;;17.30;99.90;;;21.24;54.45;101886.41;5008944;28;20553;-86
2022/10/11 06:59:10;;;;;;;26.73;3.67;;;;;;;21.92;52.98;101906.38;5004890;28;20049;-86
2022/10/11 07:01:46;;;;;;;30.45;4.07;;;;;;;22.24;51.69;101919.16;5041486;28;20032;-87
2022/10/11 07:04:14;;;;;;;18.80;2.90;;;18.80;99.90;;;22.70;50.76;101918.25;5043857;28;20033;-86
2022/10/11 07:07:30;;;;;;;;;;;;;;;;;;;;;
2022/10/11 07:10:19;;;;;;;24.48;3.42;;;;;;;23.38;49.35;101938.84;5020892;28;20040;-87
2022/10/11 07:12:45;;;;;;;21.25;3.60;;;;;;;23.32;49.09;101940.19;5029818;28;20032;-86
2022/10/11 07:15:26;;;;;;;23.15;3.85;;;20.50;99.90;;;23.43;48.56;101934.78;5023619;28;20081;-87
2022/10/11 07:18:03;;;;;;;22.17;3.30;;;20.80;99.90;;;23.62;48.43;101946.72;5040253;28;20037;-87
2022/10/11 07:20:29;;;;;;;19.58;3.40;;;;;;;23.68;47.98;101946.22;5003989;28;20494;-87
2022/10/11 07:23:32;;;;;;;;;;;;;;;;;;;;;
2022/10/11 07:25:59;;;;;;;24.70;3.30;;;;;;;23.86;47.98;101966.22;4960476;28;20043;-87
2022/10/11 07:28:29;;;;;;;23.75;3.90;;;;;;;23.97;47.06;101967.16;4955071;28;20053;-87
2022/10/11 07:31:21;;;;;;;22.27;3.40;;;;;;;24.13;46.90;101972.97;4961378;28;20522;-87
2022/10/11 07:34:21;;;;;;;22.33;3.55;;;22.50;99.90;;;24.11;46.47;101975.78;4971159;28;20514;-87
2022/10/11 07:37:16;;;;;;;26.67;3.40;;;;;;;24.27;46.24;101986.09;4975789;28;20040;-87
2022/10/11 07:39:42;;;;;;;17.52;3.15;;;;;;;24.22;46.58;101982.94;5018842;28;20490;-88
2022/10/11 07:46:17;;;;;;;15.15;2.33;;;;;;;24.46;46.08;101996.16;5006861;28;20037;-88
2022/10/11 07:48:55;;;;;;;10.27;3.08;;;;;;;24.51;46.07;102004.72;5002264;28;20116;-88
2022/10/11 07:51:40;;;;;;;17.10;3.50;;;;;;;24.69;46.11;102004.13;5017862;28;20026;-87
2022/10/11 07:54:48;;;;;;;20.88;3.20;;;24.40;97.30;;;24.39;45.34;102010.28;5022071;28;20033;-86
2022/10/11 07:57:50;;;;;;;21.63;3.42;;;;;;;24.52;45.92;102006.41;5020848;28;20407;-87
2022/10/11 08:00:29;;;;;;;19.90;3.17;;;;;;;24.73;45.84;102022.59;5018797;28;20038;-88
2022/10/11 08:03:39;;;;;;;16.77;3.55;;;25.10;97.30;;;24.73;45.27;102019.00;5069136;22;20132;-88
2022/10/11 08:09:49;;;;;;;22.05;3.50;;;25.50;96.30;;;24.70;44.71;102022.81;4976819;28;20069;-88
2022/10/11 08:20:30;;;;;;;23.73;3.83;;;;;;;24.67;45.65;102022.25;5012119;28;20153;-89
2022/10/11 08:24:26;;;;;;;18.55;3.60;;;25.80;95.20;;;24.60;44.71;102024.63;5014277;28;20030;-88
2022/10/11 08:27:07;;;;;;;18.73;3.47;;;;;;;24.65;45.52;102033.16;4973325;28;20039;-88
2022/10/11 08:29:43;;;;;;;;;;;;;;;;;;;;;
2022/10/11 08:32:11;;;;;;;19.35;3.30;;;;;;;24.55;46.16;102024.16;5018130;28;20030;-89
2022/10/11 08:38:48;;;;;;;;;;;;;;;;;;;;;
2022/10/11 08:46:17;;;;;;;21.17;3.22;;;25.00;95.50;;;23.72;46.35;102023.81;5012348;28;20033;-88
2022/10/11 08:56:12;;;;;;;24.30;4.30;;;23.30;97.30;;;22.20;49.79;102022.31;4960951;28;20527;-89
2022/10/11 08:59:55;;;;;;;18.25;3.25;;;23.00;98.10;;;22.09;50.00;102019.53;4938762;29;20074;-89
2022/10/11 09:03:09;;;;;;;21.20;3.38;;;22.60;97.70;;;21.80;49.62;102025.25;4976776;22;20132;-89
2022/10/11 09:14:18;;;;;;;21.20;3.25;;;20.80;99.20;;;19.95;52.59;102014.91;5023646;28;20037;-90
2022/10/11 09:18:01;;;;;;;20.88;3.55;;;19.90;99.90;;;19.16;54.63;102017.22;5020634;28;20045;-89
2022/10/11 09:24:56;;;;;;;23.58;3.45;;;18.70;99.90;;;17.18;59.38;102025.97;5094480;23;20307;-88
2022/10/11 09:27:56;;;;;;;26.45;2.72;;;;;;;16.66;60.88;102034.88;4974790;28;20131;-87
2022/10/11 09:34:47;;;;;;;19.27;3.30;;;17.10;99.90;;;15.82;63.84;102025.78;4991939;28;20052;-87
2022/10/11 09:45:00;;;;;;;17.88;3.17;;;;;;;15.62;64.86;102024.03;5046645;28;20043;-87
2022/10/11 09:54:52;;;;;;;16.42;2.75;;;;;;;15.55;66.90;102034.06;4983744;28;20511;-88
2022/10/11 09:58:10;;;;;;;;;;;;;;;;;;;;;
2022/10/11 10:04:21;;;;;;;;;;;;;;;;;;;;;
2022/10/11 10:06:50;;;;;;;;;;;;;;;15.51;64.85;102027.19;5066290;28;20032;-89
2022/10/11 10:13:10;;;;;;;;;;;;;;;;;;;;;
2022/10/11 10:16:27;;;;;;;21.98;3.15;;;;;;;15.36;66.08;102034.06;4949884;29;20086;-87
2022/10/11 10:19:23;;;;;;;16.33;2.50;;;16.40;99.90;;;15.37;65.25;102036.63;4893196;29;20174;-89
2022/10/11 10:22:33;;;;;;;23.90;3.33;;;16.30;99.90;;;15.48;66.30;102048.56;4905680;28;20047;-81
2022/10/11 10:25:08;;;;;;;22.70;3.15;;;16.40;99.90;;;15.43;65.00;102046.13;5009558;28;20287;-82
2022/10/11 10:27:36;;;;;;;18.40;3.13;;;16.40;99.90;;;15.39;65.27;102042.75;5022281;28;20047;-83
2022/10/11 10:30:18;;;;;;;19.17;2.70;;;16.30;99.90;;;15.34;65.31;102046.56;5025963;28;20060;-84
2022/10/11 10:33:10;;;;;;;26.20;3.03;;;16.40;99.90;;;15.38;65.56;102054.31;5008739;28;20037;-83
2022/10/11 10:36:23;;;;;;;20.98;3.25;;;16.30;99.90;;;15.33;64.94;102052.78;5040256;28;20025;-83
2022/10/11 10:39:06;;;;;;;19.38;2.65;;;16.30;99.90;;;15.32;65.73;102054.56;5021315;28;20034;-82
2022/10/11 10:41:32;;;;;;;18.55;2.88;;;16.20;99.90;;;15.25;65.48;102042.53;5024416;28;20036;-83
2022/10/11 10:44:14;;;;;;;17.20;2.92;;;16.20;99.90;;;15.14;63.89;102044.78;5010133;28;20046;-84
2022/10/11 10:47:19;;;;;;;16.70;2.72;;;16.10;99.90;;;15.09;64.39;102052.09;5026688;28;20034;-82
2022/10/11 10:50:15;;;;;;;17.30;3.10;;;16.00;99.90;;;15.04;64.45;102049.66;5021986;28;20107;-83
2022/10/11 10:53:05;;;;;;;22.17;2.83;;;15.90;99.90;;;14.87;63.55;102054.84;5043248;28;20557;-83
2022/10/11 10:55:51;;;;;;;18.45;3.08;;;15.80;99.90;;;14.83;63.63;102050.59;5029735;28;20033;-82
2022/10/11 10:59:02;;;;;;;12.57;2.15;;;15.70;99.90;;;14.77;64.27;102049.06;5043974;28;20032;-81
2022/10/11 11:02:29;;;;;;;13.50;2.22;;;15.60;99.90;;;14.43;64.31;102052.28;5042587;28;20037;-82
2022/10/11 11:05:42;;;;;;;16.23;2.88;;;15.50;99.90;;;14.61;65.52;102056.81;5013856;28;20065;-84
2022/10/11 11:08:39;;;;;;;15.90;2.17;;;15.70;99.90;;;14.92;64.84;102053.72;5023931;28;20081;-81
2022/10/11 11:11:08;;;;;;;;;;;15.70;99.90;;;15.22;64.48;102055.91;5027139;28;20028;-82
2022/10/11 11:13:48;;;;;;;16.08;2.60;;;16.10;99.90;;;15.54;64.60;102056.25;5027537;28;19917;-81
2022/10/11 11:16:58;;;;;;;17.95;2.80;;;16.30;99.90;;;15.87;63.53;102058.28;5026402;28;20035;-82
2022/10/11 11:19:59;;;;;;;9.00;1.58;;;16.60;99.90;;;15.80;63.12;102060.38;5025721;28;20036;-80
2022/10/11 11:23:30;;;;;;;10.15;1.65;;;16.30;99.90;;;14.77;62.69;102046.41;5024895;28;20025;-81
2022/10/11 11:26:48;;;;;;;12.05;1.75;;;15.70;99.90;;;14.05;64.62;102044.94;5028089;28;20031;-79
2022/10/11 11:29:59;;;;;;;11.90;2.40;;;15.20;99.90;;;13.48;66.84;102041.88;5042040;28;20025;-79
2022/10/11 11:32:44;;;;;;;18.17;2.13;;;14.90;99.90;;;13.52;67.60;102048.78;5025005;28;20037;-81
2022/10/11 11:35:34;;;;;;;16.63;2.70;;;14.80;99.90;;;13.52;67.07;102051.41;5042085;28;20029;-80
2022/10/11 11:38:15;;;;;;;11.80;2.08;;;14.70;99.90;;;13.48;67.64;102048.97;5026335;28;20033;-80
2022/10/11 11:40:53;;;;;;;14.02;2.45;;;14.60;99.90;;;13.54;67.70;102051.34;5025873;28;20036;-80
2022/10/11 11:43:19;;;;;;;11.18;2.17;;;14.60;99.90;;;13.60;68.21;102050.25;5028064;28;20083;-82
2022/10/11 11:45:57;;;;;;;14.60;2.08;;;14.70;99.90;;;13.97;67.62;102062.06;5040199;28;20492;-82
2022/10/11 11:48:25;;;;;;;8.68;1.70;;;15.00;99.90;;;14.36;68.52;102059.56;5022310;28;20076;-83
2022/10/11 11:51:18;;;;;;;16.45;2.60;;;15.30;99.90;;;14.77;67.03;102057.91;5027346;28;20044;-81
2022/10/11 11:54:27;;;;;;;17.83;2.20;;;15.60;99.90;;;15.09;65.49;102052.94;5040631;28;20037;-82
2022/10/11 11:57:17;;;;;;;14.45;2.30;;;15.90;99.90;;;15.23;63.53;102055.00;5043165;28;20043;-83
2022/10/11 11:59:50;;;;;;;13.52;2.08;;;16.00;99.90;;;15.25;64.37;102062.88;5026574;28;20040;-82
2022/10/11 12:02:46;;;;;;;18.17;2.65;;;16.10;99.90;;;15.30;64.17;102055.59;5043547;28;20093;-82
2022/10/11 12:05:17;;;;;;;13.43;2.20;;;16.10;99.90;;;15.25;64.88;102066.41;5042602;28;20029;-82
2022/10/11 12:07:49;;;;;;;11.85;2.13;;;16.10;99.90;;;15.27;64.90;102061.91;5027647;28;20033;-82
2022/10/11 12:10:29;;;;;;;11.05;2.15;;;16.20;99.90;;;15.47;64.56;102062.78;5032999;28;20379;-82
2022/10/11 12:13:16;;;;;;;13.07;2.25;;;16.30;99.90;;;15.57;64.71;102058.75;5028958;28;20037;-82
2022/10/11 12:16:11;;;;;;;;;;;16.30;99.90;;;15.59;63.91;102051.56;5027586;28;20021;-82
2022/10/11 12:19:02;;;;;;;12.63;2.30;;;16.40;99.90;;;15.71;63.90;102058.13;5034724;28;19948;-82
2022/10/11 12:21:33;;;;;;;10.20;2.50;;;16.40;99.90;;;15.61;63.01;102049.72;5030103;28;20029;-81
2022/10/11 12:24:09;;;;;;;9.35;1.88;;;16.40;99.90;;;15.53;63.98;102057.19;5032474;28;20033;-82